Pagrindinis puslapis
METAR-TAF:

METAR-TAF

Oro uostai :

Bad Vöslau, Austrija

platuma: 47-57-52N, ilguma: 016-15-34E, Aukštis: 233 m

Dabartinis oras

Ataskaita buvo paskelbta 1 valandą ir 41 minutes, ne 17:00 UTC
Vėjas 8 kt iš Vakarų/Šiaurės Vakarų
Temperatūra 13°C
Drėgmė 41%
Slėgis

METAR: LOAV 191700Z 30008KT 30KM FEW060CU BKN300CI 13/00

Laikas: 20:41 (18:41 UTC)

Prognozė

Ataskaita buvo paskelbta 7 valandos ir 16 minutes, ne 11:25 UTC
Prognozė galioja nuo 19 metu 12 UTC su 19 metu 21 UTC
Vėjas 9 kt iš Šiaurės
Matomumas 10 km arba daugiau
Su prošvaistėmis ne aukštis 5000 ft
Laikinai
nuo 19 metu 12 UTC su 19 metu 16 UTC
Vėjas 10 kt iš Šiaurės/Šiaurės Vakarų su gūsio iki 20 kt

TAF: LOAV 191125Z 1912/1921 35009KT 9999 BKN050 TEMPO 1912/1916 33010G20KT

Orai ataskaitas ir orų prognozės (METAR, TAF).

turimą stotys yra geltonos ir raudonos taškus žemėlapyje.

Perkelti pele per norėdami pamatyti stoties vardą.

Tada spustelėkite, norėdami matyti oro stebėjimo ir prognozės.

Norėdami pakeisti žemėlapį: spustelėkite ant žalios mygtukų su juodo kryžiaus žemyn,; žalią mygtuką su brūkšneliu, jei norite nutolinti; arba žalių rodyklių gretimoms žemėlapius.


METAR-TAF: